Time;durP1;ratioP1;P1;durP2;ratioP2;P2;SDS_P1;SDS_P2;PMS_P1;PMS_P2;Temp;Humidity;BMP_temperature;BMP_pressure;BME280_temperature;BME280_humidity;BME280_pressure;Samples;Min_cycle;Max_cycle;Signal;HPM_P1;HPM_P2
2022/12/05 08:47:26;;;;;;;18.90;17.60;;;7.30;40.30;;;;;;5055324;28;20639;-76
2022/12/05 08:49:52;;;;;;;19.50;18.20;;;7.40;39.70;;;;;;5055170;28;20466;-76
2022/12/05 08:52:17;;;;;;;16.50;15.40;;;7.50;39.40;;;;;;5049295;28;20426;-78
2022/12/05 08:54:43;;;;;;;18.10;16.90;;;7.60;38.50;;;;;;5036621;28;20181;-79
2022/12/05 08:57:09;;;;;;;18.60;17.40;;;7.60;38.40;;;;;;5037109;28;20202;-79
2022/12/05 08:59:34;;;;;;;18.37;16.97;;;7.70;38.50;;;;;;5036090;28;20177;-78
2022/12/05 09:02:00;;;;;;;19.30;17.90;;;7.80;38.20;;;;;;5018032;28;20173;-79
2022/12/05 09:04:26;;;;;;;17.77;16.30;;;7.90;38.00;;;;;;5033783;28;20697;-80
2022/12/05 09:06:51;;;;;;;18.43;17.33;;;8.10;37.70;;;;;;5017398;28;20191;-78
2022/12/05 09:09:17;;;;;;;17.30;16.20;;;8.20;37.30;;;;;;5016929;28;20201;-79
2022/12/05 09:11:49;;;;;;;18.77;17.43;;;8.30;36.50;;;;;;5034898;28;20171;-78
2022/12/05 09:14:16;;;;;;;20.07;17.93;;;8.20;36.00;;;;;;5034934;28;20188;-79
2022/12/05 09:16:43;;;;;;;18.10;16.80;;;8.10;36.00;;;;;;5018098;28;20499;-80
2022/12/05 09:19:19;;;;;;;17.30;16.10;;;8.20;36.40;;;;;;5021521;28;20419;-81
2022/12/05 09:21:45;;;;;;;16.20;15.20;;;8.30;36.30;;;;;;5021727;28;20414;-80
2022/12/05 09:24:12;;;;;;;16.10;14.80;;;8.10;36.10;;;;;;5037094;28;20432;-80
2022/12/05 09:26:38;;;;;;;16.87;15.77;;;8.20;36.60;;;;;;5040104;28;20411;-79
2022/12/05 09:29:03;;;;;;;16.70;15.60;;;8.10;36.20;;;;;;5044208;28;20463;-80
2022/12/05 09:31:29;;;;;;;17.00;15.90;;;8.00;36.40;;;;;;5045086;28;20413;-80
2022/12/05 09:33:55;;;;;;;15.80;14.80;;;8.10;36.80;;;;;;5019682;28;20211;-81
2022/12/05 09:36:27;;;;;;;16.07;15.00;;;8.30;36.40;;;;;;5027122;28;20446;-80
2022/12/05 09:38:53;;;;;;;15.00;14.00;;;8.50;36.00;;;;;;5018659;28;20191;-80
2022/12/05 09:44:36;;;;;;;18.50;17.30;;;8.70;35.10;;;;;;5021856;28;20448;-81
2022/12/05 09:47:30;;;;;;;16.67;15.67;;;8.90;34.40;;;;;;5024351;28;20435;-80
2022/12/05 09:50:18;;;;;;;14.17;13.23;;;8.90;34.50;;;;;;4994839;28;20491;-80
2022/12/05 09:53:03;;;;;;;17.17;16.17;;;8.70;34.00;;;;;;5016790;28;20509;-80
2022/12/05 09:56:07;;;;;;;17.77;16.57;;;8.70;34.80;;;;;;5016611;28;20439;-80
2022/12/05 09:58:47;;;;;;;16.53;15.53;;;8.70;35.00;;;;;;5003253;28;20424;-79
2022/12/05 10:01:19;;;;;;;15.20;14.30;;;8.90;34.20;;;;;;5021938;28;20499;-80
2022/12/05 10:03:56;;;;;;;14.90;13.90;;;8.90;34.20;;;;;;5021296;28;20842;-80
2022/12/05 10:06:32;;;;;;;16.20;15.30;;;8.80;34.40;;;;;;5016389;28;20416;-80
2022/12/05 10:09:19;;;;;;;15.53;14.53;;;8.80;34.70;;;;;;5017742;28;20486;-80
2022/12/05 10:12:16;;;;;;;15.63;14.67;;;8.70;34.50;;;;;;5015811;28;20408;-80
2022/12/05 10:14:45;;;;;;;16.00;14.70;;;8.50;35.60;;;;;;4984686;28;20444;-80
2022/12/05 10:17:30;;;;;;;14.67;13.77;;;8.70;36.10;;;;;;5015790;28;20413;-79
2022/12/05 10:20:00;;;;;;;14.90;14.10;;;8.90;35.30;;;;;;5016055;28;20424;-79
2022/12/05 10:22:47;;;;;;;15.37;14.40;;;9.00;34.60;;;;;;4999548;28;20944;-80
2022/12/05 10:25:16;;;;;;;14.10;13.30;;;9.00;34.90;;;;;;5015768;28;20448;-79
2022/12/05 10:27:57;;;;;;;14.00;13.20;;;9.20;34.50;;;;;;4999187;28;20424;-79
2022/12/05 10:30:26;;;;;;;14.97;14.00;;;9.20;34.10;;;;;;5016416;28;20499;-80
2022/12/05 10:32:52;;;;;;;14.77;13.77;;;9.30;34.10;;;;;;5016443;28;20488;-79
2022/12/05 10:35:19;;;;;;;13.90;13.10;;;9.40;33.80;;;;;;5014705;28;20958;-81
2022/12/05 10:38:08;;;;;;;14.60;13.80;;;9.50;33.70;;;;;;5017180;28;20239;-81
2022/12/05 10:40:44;;;;;;;14.27;13.37;;;9.50;33.50;;;;;;5017357;28;20436;-80
2022/12/05 10:43:15;;;;;;;13.17;12.40;;;9.60;33.60;;;;;;5000444;28;20747;-80
2022/12/05 10:45:45;;;;;;;13.90;13.00;;;9.60;33.80;;;;;;5016726;28;20938;-80
2022/12/05 10:48:14;;;;;;;14.77;13.97;;;9.60;33.90;;;;;;5016309;28;20463;-80
2022/12/05 10:50:41;;;;;;;13.93;13.13;;;9.60;33.70;;;;;;5017791;28;20408;-80
2022/12/05 10:53:11;;;;;;;14.33;13.53;;;9.60;34.00;;;;;;5017054;28;20940;-80
2022/12/05 10:55:40;;;;;;;14.40;13.60;;;9.60;33.90;;;;;;5019739;28;20467;-80
2022/12/05 10:58:13;;;;;;;13.90;13.17;;;9.60;34.00;;;;;;5031560;28;20500;-80
2022/12/05 11:00:45;;;;;;;13.10;12.30;;;9.40;34.50;;;;;;5036483;28;20415;-81
2022/12/05 11:03:38;;;;;;;12.83;12.23;;;9.30;32.80;;;;;;5018143;28;20419;-81
2022/12/05 11:06:26;;;;;;;12.43;11.83;;;9.00;33.60;;;;;;5012283;28;20420;-80
2022/12/05 11:09:12;;;;;;;12.03;11.50;;;9.00;33.30;;;;;;5016405;28;20456;-80
2022/12/05 11:11:38;;;;;;;11.83;11.33;;;9.20;32.30;;;;;;5015932;28;20404;-80
2022/12/05 11:14:08;;;;;;;12.77;12.17;;;9.00;32.80;;;;;;5014650;28;20794;-80
2022/12/05 11:16:37;;;;;;;13.67;12.87;;;9.00;32.80;;;;;;5019676;28;20252;-81
2022/12/05 11:19:21;;;;;;;12.60;12.00;;;9.10;32.50;;;;;;5020753;28;20929;-80
2022/12/05 11:21:48;;;;;;;13.00;12.30;;;9.00;32.20;;;;;;5020249;28;20443;-79
2022/12/05 11:24:32;;;;;;;12.33;11.73;;;8.90;32.60;;;;;;5036636;28;21024;-79
2022/12/05 11:27:14;;;;;;;11.87;11.37;;;9.10;32.70;;;;;;5037394;28;20503;-79
2022/12/05 11:29:41;;;;;;;11.63;11.13;;;9.10;31.70;;;;;;5019573;28;20543;-79
2022/12/05 11:32:20;;;;;;;13.80;13.00;;;8.80;32.00;;;;;;5019155;28;20418;-79
2022/12/05 11:34:52;;;;;;;12.00;11.40;;;8.80;32.60;;;;;;5019523;28;20470;-79
2022/12/05 11:37:28;;;;;;;12.30;11.63;;;8.80;33.10;;;;;;5037567;28;20807;-80
2022/12/05 11:39:53;;;;;;;16.83;15.60;;;8.70;32.50;;;;;;5037787;28;20430;-79
2022/12/05 11:42:31;;;;;;;12.77;12.17;;;8.70;33.20;;;;;;5022989;28;20426;-79
2022/12/05 11:45:31;;;;;;;13.53;12.70;;;8.60;34.00;;;;;;5022791;28;20200;-78
2022/12/05 11:48:17;;;;;;;12.87;12.30;;;8.70;33.90;;;;;;5014231;28;20937;-78
2022/12/05 11:50:49;;;;;;;12.47;11.97;;;8.90;32.40;;;;;;5015993;28;20438;-79
2022/12/05 11:53:25;;;;;;;12.77;12.17;;;8.90;32.50;;;;;;5015514;28;20408;-78
2022/12/05 11:56:18;;;;;;;13.13;12.53;;;8.80;32.40;;;;;;5033511;28;20423;-78
2022/12/05 11:59:15;;;;;;;11.50;11.00;;;8.90;32.50;;;;;;5017362;28;20419;-79
2022/12/05 12:01:56;;;;;;;12.60;11.73;;;9.20;31.80;;;;;;5018204;28;20477;-79
2022/12/05 12:04:45;;;;;;;10.30;9.90;;;9.20;31.30;;;;;;5036827;28;20431;-79
2022/12/05 12:07:40;;;;;;;10.80;10.20;;;9.10;30.70;;;;;;5040298;28;20418;-80
2022/12/05 12:10:20;;;;;;;11.00;10.50;;;8.80;31.10;;;;;;5026996;28;20474;-81
2022/12/05 12:13:02;;;;;;;11.70;11.20;;;8.70;31.40;;;;;;5040519;28;20411;-82
2022/12/05 12:15:47;;;;;;;10.37;9.77;;;8.70;31.40;;;;;;5022620;28;20443;-81
2022/12/05 12:18:50;;;;;;;11.73;11.23;;;8.60;32.00;;;;;;5027435;28;20812;-78
2022/12/05 12:21:18;;;;;;;11.30;10.80;;;8.70;31.40;;;;;;5037970;28;20426;-79
2022/12/05 12:23:59;;;;;;;11.43;10.93;;;8.70;31.40;;;;;;5020876;28;20427;-79
2022/12/05 12:26:29;;;;;;;10.87;10.37;;;8.70;31.70;;;;;;5020517;28;20774;-79
2022/12/05 12:29:41;;;;;;;10.43;9.93;;;8.60;31.50;;;;;;5020860;28;20879;-79
2022/12/05 12:32:24;;;;;;;11.00;10.23;;;8.70;31.40;;;;;;5037915;28;20415;-79
2022/12/05 12:35:02;;;;;;;9.93;9.53;;;8.60;31.50;;;;;;5019173;28;20530;-79
2022/12/05 12:37:52;;;;;;;11.20;10.60;;;8.60;31.30;;;;;;5019819;28;20492;-80
2022/12/05 12:40:42;;;;;;;10.57;10.07;;;8.70;31.40;;;;;;5019591;28;20852;-79
2022/12/05 12:43:23;;;;;;;11.40;10.80;;;8.70;31.40;;;;;;5035651;28;20423;-80
2022/12/05 12:46:00;;;;;;;10.60;10.20;;;8.70;31.40;;;;;;5019225;28;20845;-81
2022/12/05 12:48:51;;;;;;;10.53;10.10;;;8.70;31.90;;;;;;5019133;28;20477;-81
2022/12/05 12:51:16;;;;;;;11.50;10.90;;;8.70;31.70;;;;;;5018978;28;20422;-81
2022/12/05 12:53:52;;;;;;;16.73;11.00;;;8.80;31.40;;;;;;5036623;28;20427;-82
2022/12/05 12:56:37;;;;;;;11.57;11.07;;;8.60;31.90;;;;;;5017567;28;20271;-80
2022/12/05 12:59:50;;;;;;;10.50;10.10;;;8.50;32.60;;;;;;5019120;28;20431;-81
2022/12/05 13:02:40;;;;;;;10.70;10.20;;;8.50;32.50;;;;;;4961016;28;20448;-81
2022/12/05 13:05:30;;;;;;;11.47;10.90;;;8.60;32.70;;;;;;4980382;28;20831;-81
2022/12/05 13:08:18;;;;;;;10.50;10.10;;;8.80;32.10;;;;;;5014618;28;20463;-79
2022/12/05 13:10:46;;;;;;;10.43;10.03;;;8.80;31.40;;;;;;5023543;28;20484;-80
2022/12/05 13:13:19;;;;;;;10.53;9.93;;;8.70;31.40;;;;;;5005077;28;20409;-81
2022/12/05 13:15:53;;;;;;;10.27;9.77;;;8.70;31.60;;;;;;5005000;28;20428;-81
2022/12/05 13:18:21;;;;;;;11.07;10.57;;;8.70;31.40;;;;;;5022789;28;20388;-81
2022/12/05 13:20:50;;;;;;;10.33;9.93;;;8.80;31.70;;;;;;5010129;28;20463;-81
2022/12/05 13:23:19;;;;;;;11.60;11.00;;;8.80;31.40;;;;;;5020692;28;20420;-80
2022/12/05 13:25:46;;;;;;;11.03;10.53;;;8.70;32.10;;;;;;5021367;28;20433;-80
2022/12/05 13:28:29;;;;;;;11.60;11.00;;;8.80;31.40;;;;;;5020507;28;20440;-80
2022/12/05 13:30:56;;;;;;;10.53;10.13;;;9.00;30.70;;;;;;5020925;28;20436;-79
2022/12/05 13:33:25;;;;;;;10.20;9.80;;;9.00;30.70;;;;;;5019414;28;20980;-79
2022/12/05 13:44:57;;;;;;;10.00;9.60;;;9.20;29.50;;;;;;5025025;28;20459;-81
2022/12/05 13:47:32;;;;;;;14.97;13.87;;;9.40;29.60;;;;;;5008755;28;20455;-79
2022/12/05 13:50:19;;;;;;;17.30;16.10;;;9.60;30.50;;;;;;5006979;28;20976;-80
2022/12/05 13:52:51;;;;;;;26.33;23.60;;;9.70;32.20;;;;;;5023478;28;20435;-80
2022/12/05 13:55:59;;;;;;;11.80;11.30;;;9.70;32.20;;;;;;5001324;28;20823;-81
2022/12/05 13:58:24;;;;;;;14.40;13.50;;;9.50;30.00;;;;;;5006800;28;20438;-80
2022/12/05 14:01:10;;;;;;;14.00;13.10;;;9.40;31.40;;;;;;5038705;28;20439;-80
2022/12/05 14:03:57;;;;;;;16.60;15.60;;;9.60;32.10;;;;;;5022981;28;20201;-80
2022/12/05 14:06:37;;;;;;;13.97;13.17;;;9.70;32.30;;;;;;5025453;28;20423;-80
2022/12/05 14:09:26;;;;;;;17.20;16.00;;;9.70;32.90;;;;;;5026526;28;20470;-80
2022/12/05 14:12:10;;;;;;;19.53;18.17;;;9.70;32.20;;;;;;5004477;28;20422;-80
2022/12/05 14:14:57;;;;;;;19.10;17.50;;;9.80;32.50;;;;;;5026726;28;20431;-80
2022/12/05 14:17:41;;;;;;;18.37;17.00;;;9.60;34.50;;;;;;5025381;28;20406;-80
2022/12/05 14:20:26;;;;;;;19.20;17.97;;;9.60;34.60;;;;;;5042415;28;20407;-80
2022/12/05 14:23:19;;;;;;;19.87;18.30;;;9.60;35.50;;;;;;5027442;28;20407;-80
2022/12/05 14:26:06;;;;;;;19.43;17.93;;;9.70;35.10;;;;;;5040821;28;20408;-80
2022/12/05 14:28:37;;;;;;;19.47;18.03;;;9.80;34.80;;;;;;5022253;28;20459;-79
2022/12/05 14:31:15;;;;;;;19.50;18.30;;;9.80;34.40;;;;;;5040872;28;20434;-80
2022/12/05 14:33:41;;;;;;;19.90;18.40;;;9.70;35.50;;;;;;5023774;28;20431;-81
2022/12/05 14:36:14;;;;;;;18.90;17.63;;;9.70;36.20;;;;;;5040475;28;20419;-79
2022/12/05 14:38:41;;;;;;;20.60;19.03;;;9.70;36.00;;;;;;5020801;28;20485;-79
2022/12/05 14:41:23;;;;;;;18.37;16.97;;;9.70;35.70;;;;;;5025732;28;20426;-80
2022/12/05 14:43:53;;;;;;;19.00;17.77;;;9.70;35.50;;;;;;5019564;28;20444;-80
2022/12/05 14:46:27;;;;;;;20.37;18.77;;;9.80;35.00;;;;;;5042879;28;20438;-80
2022/12/05 14:48:54;;;;;;;18.63;17.43;;;9.90;34.90;;;;;;5020332;28;20459;-80
2022/12/05 14:51:29;;;;;;;17.43;16.30;;;9.90;34.90;;;;;;5037044;28;20415;-80
2022/12/05 14:54:14;;;;;;;19.20;17.97;;;9.90;34.70;;;;;;5020327;28;20443;-80
2022/12/05 14:56:48;;;;;;;18.87;17.50;;;10.00;33.60;;;;;;5020472;28;20449;-80
2022/12/05 14:59:27;;;;;;;19.27;17.73;;;10.10;33.30;;;;;;5020622;28;20466;-81
2022/12/05 15:01:59;;;;;;;18.40;17.20;;;10.10;33.10;;;;;;5019219;28;20428;-80
2022/12/05 15:04:52;;;;;;;17.40;16.10;;;10.20;32.90;;;;;;5019147;28;20435;-79
2022/12/05 15:07:26;;;;;;;18.20;16.70;;;10.20;32.80;;;;;;5037108;28;20491;-79
2022/12/05 15:09:59;;;;;;;17.30;16.17;;;10.20;32.60;;;;;;5037649;28;20463;-80
2022/12/05 15:12:27;;;;;;;18.93;17.30;;;10.10;33.10;;;;;;5019777;28;20514;-80
2022/12/05 15:15:01;;;;;;;17.77;16.37;;;10.20;33.20;;;;;;5036788;28;20463;-80
2022/12/05 15:17:42;;;;;;;17.90;16.60;;;10.20;32.90;;;;;;5037092;28;20403;-80
2022/12/05 15:20:16;;;;;;;19.30;17.73;;;10.10;33.00;;;;;;5038250;28;20446;-80
2022/12/05 15:22:41;;;;;;;18.90;17.50;;;10.10;33.90;;;;;;5021359;28;20554;-80
2022/12/05 15:25:23;;;;;;;18.97;17.57;;;9.90;34.50;;;;;;5022217;28;20972;-80
2022/12/05 15:27:54;;;;;;;17.10;16.00;;;9.90;35.60;;;;;;5021627;28;20181;-80
2022/12/05 15:30:20;;;;;;;17.93;16.53;;;9.90;34.80;;;;;;5038857;28;20463;-80
2022/12/05 15:32:45;;;;;;;18.10;16.80;;;9.90;34.90;;;;;;5021234;28;20418;-80
2022/12/05 15:35:14;;;;;;;16.70;15.60;;;9.80;34.70;;;;;;5039231;28;20197;-79
2022/12/05 15:37:56;;;;;;;18.10;16.93;;;9.80;35.00;;;;;;5024984;28;20180;-80
2022/12/05 15:40:25;;;;;;;17.00;15.93;;;9.90;34.80;;;;;;5037396;28;20438;-80
2022/12/05 15:42:55;;;;;;;17.93;16.63;;;9.90;34.60;;;;;;5025132;28;20813;-80
2022/12/05 15:45:26;;;;;;;18.23;16.93;;;9.90;34.90;;;;;;5020410;28;20530;-80
2022/12/05 15:47:55;;;;;;;18.13;17.03;;;9.90;35.10;;;;;;5022038;28;20428;-78
2022/12/05 15:50:43;;;;;;;18.63;17.23;;;9.90;34.50;;;;;;5020101;28;20502;-80
2022/12/05 15:53:40;;;;;;;18.50;17.30;;;9.90;34.10;;;;;;5020413;28;20420;-80
2022/12/05 15:56:19;;;;;;;18.53;17.33;;;9.80;34.10;;;;;;5006002;28;20423;-79
2022/12/05 15:58:50;;;;;;;18.20;16.90;;;9.90;34.50;;;;;;5021164;28;20422;-79
2022/12/05 16:01:21;;;;;;;18.27;16.97;;;9.80;33.80;;;;;;5022215;28;20415;-81
2022/12/05 16:04:08;;;;;;;18.37;16.97;;;9.60;34.40;;;;;;5044295;28;20426;-81
2022/12/05 16:06:42;;;;;;;18.80;17.40;;;9.70;34.50;;;;;;5024527;28;20424;-80
2022/12/05 16:09:13;;;;;;;18.17;16.97;;;9.50;34.70;;;;;;5037354;28;20466;-79
2022/12/05 16:11:48;;;;;;;20.73;19.30;;;9.40;34.60;;;;;;5038437;28;20530;-78
2022/12/05 16:14:14;;;;;;;19.70;18.40;;;9.10;35.50;;;;;;5020177;28;20513;-78
2022/12/05 16:16:40;;;;;;;18.77;17.47;;;9.10;36.70;;;;;;5019990;28;20506;-80
2022/12/05 16:19:21;;;;;;;19.20;17.90;;;9.10;36.30;;;;;;5014480;28;20451;-79
2022/12/05 16:22:16;;;;;;;19.10;17.70;;;9.20;36.00;;;;;;5017520;28;20263;-80
2022/12/05 16:24:49;;;;;;;19.80;18.43;;;9.30;35.40;;;;;;5021686;28;20436;-80
2022/12/05 16:27:24;;;;;;;19.90;18.60;;;9.40;35.40;;;;;;5021425;28;20413;-79
2022/12/05 16:30:16;;;;;;;19.30;17.90;;;9.30;34.80;;;;;;5017183;28;20506;-79
2022/12/05 16:32:46;;;;;;;19.73;18.03;;;9.20;35.90;;;;;;5025707;28;20442;-80
2022/12/05 16:35:32;;;;;;;18.80;17.40;;;9.00;36.10;;;;;;5024085;28;20433;-80
2022/12/05 16:38:24;;;;;;;20.60;19.20;;;8.90;36.90;;;;;;5009837;28;20412;-80
2022/12/05 16:40:58;;;;;;;19.63;18.10;;;8.80;37.70;;;;;;5010159;28;20428;-80
2022/12/05 16:43:42;;;;;;;20.27;18.83;;;9.00;37.10;;;;;;5018374;28;20418;-80
2022/12/05 16:46:11;;;;;;;20.07;18.70;;;9.00;36.90;;;;;;5000284;28;20447;-80
2022/12/05 16:48:46;;;;;;;19.20;17.80;;;9.10;36.60;;;;;;5017691;28;21009;-80
2022/12/05 16:51:20;;;;;;;20.00;18.70;;;9.20;36.20;;;;;;5018935;28;20423;-80
2022/12/05 16:53:49;;;;;;;19.70;18.30;;;9.20;36.40;;;;;;5033125;28;20489;-80
2022/12/05 16:56:22;;;;;;;21.30;19.60;;;9.20;36.20;;;;;;5036118;28;20422;-80
2022/12/05 16:58:48;;;;;;;19.30;18.00;;;9.20;36.00;;;;;;5018132;28;20928;-81
2022/12/05 17:01:17;;;;;;;20.23;18.90;;;9.20;36.30;;;;;;5018434;28;20426;-81
2022/12/05 17:03:42;;;;;;;20.67;19.37;;;9.20;36.20;;;;;;5038271;28;20978;-79
2022/12/05 17:06:08;;;;;;;18.90;17.70;;;9.20;36.00;;;;;;5038713;28;20438;-83
2022/12/05 17:08:35;;;;;;;19.70;18.17;;;9.30;35.90;;;;;;5009543;28;20271;-81
2022/12/05 17:11:02;;;;;;;19.70;18.40;;;9.40;35.60;;;;;;5019714;28;20183;-82
2022/12/05 17:13:29;;;;;;;21.00;19.57;;;9.40;35.30;;;;;;5030351;28;20467;-81
2022/12/05 17:15:57;;;;;;;20.43;19.13;;;9.40;35.30;;;;;;5041790;28;20403;-83
2022/12/05 17:18:23;;;;;;;20.80;19.30;;;9.40;35.20;;;;;;5045028;28;20411;-80
2022/12/05 17:20:52;;;;;;;20.20;18.77;;;9.40;35.10;;;;;;5022955;28;21064;-80
2022/12/05 17:23:19;;;;;;;19.90;18.60;;;9.50;35.00;;;;;;5023525;28;20173;-79
2022/12/05 17:25:53;;;;;;;18.63;17.43;;;9.50;35.20;;;;;;5023061;28;20419;-80
2022/12/05 17:28:19;;;;;;;20.20;18.80;;;9.60;34.90;;;;;;5024573;28;20566;-81
2022/12/05 17:30:45;;;;;;;19.33;18.13;;;9.40;35.30;;;;;;5042273;28;20431;-79
2022/12/05 17:33:15;;;;;;;21.13;19.53;;;9.50;35.10;;;;;;5024213;28;20411;-80
2022/12/05 17:35:41;;;;;;;19.57;18.17;;;9.40;35.10;;;;;;5042742;28;20172;-79
2022/12/05 17:38:07;;;;;;;19.50;18.07;;;9.60;35.10;;;;;;5023530;28;20791;-80
2022/12/05 17:40:37;;;;;;;20.10;18.80;;;9.60;34.90;;;;;;5023150;28;20275;-81
2022/12/05 17:43:03;;;;;;;20.20;18.90;;;9.60;34.60;;;;;;5022868;28;20449;-79
2022/12/05 17:45:29;;;;;;;19.23;17.77;;;9.70;34.60;;;;;;5040834;28;20435;-80
2022/12/05 17:47:58;;;;;;;18.80;17.57;;;9.70;34.40;;;;;;5022771;28;20426;-79
2022/12/05 17:50:25;;;;;;;19.30;17.90;;;9.70;34.30;;;;;;5006276;28;20447;-80
2022/12/05 17:53:04;;;;;;;19.87;18.43;;;9.70;34.30;;;;;;5004259;28;20409;-81
2022/12/05 17:55:33;;;;;;;19.50;18.20;;;9.70;34.00;;;;;;5010033;28;20435;-81
2022/12/05 17:57:58;;;;;;;18.57;17.23;;;9.60;34.10;;;;;;5022034;28;20404;-80
2022/12/05 18:00:24;;;;;;;20.73;19.03;;;9.60;34.80;;;;;;5022549;28;20450;-79
2022/12/05 18:02:51;;;;;;;19.97;18.57;;;9.50;34.80;;;;;;5040638;28;20196;-79
2022/12/05 18:05:17;;;;;;;22.60;20.83;;;9.60;35.00;;;;;;5022055;28;20196;-79
2022/12/05 18:07:43;;;;;;;23.37;21.47;;;9.60;34.90;;;;;;5022708;28;20796;-80
2022/12/05 18:10:14;;;;;;;22.00;20.40;;;9.60;34.80;;;;;;5040831;28;20496;-80
2022/12/05 18:12:39;;;;;;;21.60;20.00;;;9.50;34.80;;;;;;5022248;28;20420;-80
2022/12/05 18:15:06;;;;;;;21.07;19.47;;;9.60;34.90;;;;;;5039963;28;20470;-80
2022/12/05 18:17:31;;;;;;;20.70;19.30;;;9.50;34.90;;;;;;5040816;28;20415;-79
2022/12/05 18:20:00;;;;;;;22.73;21.03;;;9.50;35.20;;;;;;5024519;28;20415;-80
2022/12/05 18:22:26;;;;;;;24.30;22.50;;;9.50;35.10;;;;;;5022894;28;20639;-80
2022/12/05 18:24:52;;;;;;;22.53;20.97;;;9.50;34.90;;;;;;5041578;28;20466;-79
2022/12/05 18:27:19;;;;;;;22.33;20.73;;;9.50;35.00;;;;;;5040024;28;20526;-81
2022/12/05 18:29:48;;;;;;;22.67;20.90;;;9.50;34.90;;;;;;5039299;28;20474;-79
2022/12/05 18:32:15;;;;;;;21.80;20.00;;;9.50;35.10;;;;;;5021536;28;20420;-79
2022/12/05 18:34:41;;;;;;;24.03;22.23;;;9.50;35.10;;;;;;5021685;28;20503;-79
2022/12/05 18:37:06;;;;;;;22.47;21.00;;;9.50;35.10;;;;;;5025059;28;20477;-80
2022/12/05 18:39:32;;;;;;;23.40;21.30;;;9.40;35.20;;;;;;5044119;28;20598;-82
2022/12/05 18:41:57;;;;;;;22.87;21.27;;;9.40;35.30;;;;;;5048676;28;20642;-80
2022/12/05 18:44:23;;;;;;;21.37;19.87;;;9.50;35.20;;;;;;5065011;28;20204;-79
2022/12/05 18:46:49;;;;;;;20.97;19.40;;;9.50;35.40;;;;;;5048009;28;20195;-81
2022/12/05 18:49:14;;;;;;;21.33;19.80;;;9.40;35.40;;;;;;5046095;28;20249;-82
2022/12/05 18:51:41;;;;;;;20.60;19.20;;;9.50;35.20;;;;;;5059749;28;20207;-79
2022/12/05 18:54:07;;;;;;;21.17;19.67;;;9.50;35.20;;;;;;5062527;28;20948;-80
2022/12/05 18:56:34;;;;;;;21.80;20.10;;;9.40;35.30;;;;;;5042552;28;20199;-81
2022/12/05 18:59:03;;;;;;;20.47;18.97;;;9.40;35.40;;;;;;5042804;28;20765;-79
2022/12/05 19:01:30;;;;;;;21.70;20.20;;;9.40;35.30;;;;;;5038783;28;20433;-78
2022/12/05 19:03:57;;;;;;;21.90;20.33;;;9.40;35.30;;;;;;5058912;28;20439;-80
2022/12/05 19:06:26;;;;;;;20.50;19.10;;;9.40;35.40;;;;;;5060508;28;20418;-80
2022/12/05 19:08:56;;;;;;;18.90;17.70;;;9.40;35.60;;;;;;5040810;28;20492;-78
2022/12/05 19:11:24;;;;;;;20.13;18.73;;;9.40;35.50;;;;;;5036690;28;20418;-79
2022/12/05 19:13:57;;;;;;;19.23;17.93;;;9.40;35.40;;;;;;5040387;28;20447;-79
2022/12/05 19:16:23;;;;;;;20.73;19.33;;;9.40;35.70;;;;;;5057730;28;20394;-80
2022/12/05 19:18:54;;;;;;;19.93;18.63;;;9.30;35.70;;;;;;5043680;28;20422;-79
2022/12/05 19:21:19;;;;;;;21.30;19.70;;;9.30;36.20;;;;;;5007926;28;20439;-80
2022/12/05 19:23:45;;;;;;;23.10;21.27;;;9.30;36.00;;;;;;5022309;28;20446;-79
2022/12/05 19:26:11;;;;;;;24.77;22.87;;;9.30;35.80;;;;;;5023173;28;20195;-80
2022/12/05 19:28:37;;;;;;;23.47;21.67;;;9.40;35.80;;;;;;5041113;28;20208;-80
2022/12/05 19:31:11;;;;;;;23.87;22.10;;;9.40;35.70;;;;;;5040414;28;20455;-81
2022/12/05 19:33:42;;;;;;;23.10;21.40;;;9.30;35.50;;;;;;5021446;28;20461;-79
2022/12/05 19:36:13;;;;;;;22.73;21.00;;;9.30;35.60;;;;;;5022148;28;20424;-80
2022/12/05 19:38:41;;;;;;;21.30;19.83;;;9.40;35.50;;;;;;5040896;28;20477;-80
2022/12/05 19:41:11;;;;;;;22.17;20.40;;;9.40;35.50;;;;;;5023003;28;20479;-79
2022/12/05 19:43:37;;;;;;;21.57;20.07;;;9.40;35.50;;;;;;5022660;28;20435;-80
2022/12/05 19:46:05;;;;;;;23.37;21.57;;;9.40;35.60;;;;;;5041767;28;20431;-79
2022/12/05 19:48:31;;;;;;;23.23;21.53;;;9.40;35.50;;;;;;5040854;28;20463;-81
2022/12/05 19:50:58;;;;;;;22.80;21.20;;;9.50;35.80;;;;;;5023286;28;20415;-80
2022/12/05 19:53:26;;;;;;;22.10;20.40;;;9.50;35.40;;;;;;5024194;28;20415;-82
2022/12/05 19:55:52;;;;;;;23.70;21.90;;;9.40;35.30;;;;;;5042117;28;20498;-79
2022/12/05 19:58:18;;;;;;;21.80;19.87;;;9.40;35.50;;;;;;5039695;28;20457;-81
2022/12/05 20:00:43;;;;;;;22.53;21.03;;;9.40;35.40;;;;;;5042445;28;20822;-79
2022/12/05 20:03:09;;;;;;;21.17;19.57;;;9.40;35.50;;;;;;5022639;28;20176;-80
2022/12/05 20:05:35;;;;;;;21.73;20.20;;;9.40;35.40;;;;;;5039191;28;20516;-80
2022/12/05 20:08:01;;;;;;;21.27;19.77;;;9.30;35.50;;;;;;5041167;28;20486;-79
2022/12/05 20:10:27;;;;;;;21.53;20.07;;;9.30;35.60;;;;;;5024898;28;20490;-80
2022/12/05 20:12:53;;;;;;;20.27;18.97;;;9.30;35.40;;;;;;5025765;28;20207;-79
2022/12/05 20:15:18;;;;;;;21.23;19.77;;;9.30;35.50;;;;;;5043909;28;20439;-81
2022/12/05 20:17:44;;;;;;;24.30;22.60;;;9.30;35.70;;;;;;5022755;28;20271;-78
2022/12/05 20:20:10;;;;;;;24.10;22.30;;;9.30;36.20;;;;;;5022601;28;20781;-79
2022/12/05 20:22:36;;;;;;;20.17;18.77;;;9.40;35.70;;;;;;5037989;28;20203;-79
2022/12/05 20:25:02;;;;;;;20.40;19.00;;;9.40;35.70;;;;;;5023462;28;20822;-79
2022/12/05 20:27:28;;;;;;;20.73;19.27;;;9.50;35.10;;;;;;5026440;28;20445;-79
2022/12/05 20:29:53;;;;;;;21.87;20.30;;;9.60;34.70;;;;;;5041834;28;20459;-79
2022/12/05 20:32:19;;;;;;;19.73;18.50;;;9.70;34.50;;;;;;5024768;28;20203;-81
2022/12/05 20:34:45;;;;;;;21.10;19.60;;;9.70;34.10;;;;;;5024054;28;20200;-79
2022/12/05 20:37:10;;;;;;;20.37;18.80;;;9.80;34.00;;;;;;5024122;28;20169;-79
2022/12/05 20:39:36;;;;;;;19.53;18.27;;;9.70;33.60;;;;;;5027203;28;20825;-80
2022/12/05 20:42:02;;;;;;;17.77;16.60;;;9.70;34.60;;;;;;5027817;28;20196;-78
2022/12/05 20:44:27;;;;;;;17.60;16.40;;;9.70;32.90;;;;;;5026101;28;20443;-79
2022/12/05 20:46:53;;;;;;;20.90;19.53;;;9.80;32.30;;;;;;5025286;28;20662;-80
2022/12/05 20:49:18;;;;;;;17.37;16.23;;;9.80;32.30;;;;;;5020336;28;20197;-79
2022/12/05 20:51:45;;;;;;;17.30;16.20;;;9.80;32.30;;;;;;5038588;28;20461;-79
2022/12/05 20:54:12;;;;;;;16.93;15.83;;;9.70;32.20;;;;;;5020036;28;20209;-78
2022/12/05 20:56:39;;;;;;;18.37;17.07;;;9.20;32.80;;;;;;5019953;28;20790;-78
2022/12/05 20:59:06;;;;;;;18.03;17.00;;;9.00;33.60;;;;;;5020290;28;20435;-79
2022/12/05 21:01:34;;;;;;;18.20;17.00;;;9.00;34.60;;;;;;5040468;28;20415;-79
2022/12/05 21:04:00;;;;;;;19.30;17.90;;;9.20;34.40;;;;;;5022729;28;20475;-79
2022/12/05 21:06:29;;;;;;;19.80;18.20;;;9.30;33.90;;;;;;5024121;28;20971;-80
2022/12/05 21:08:55;;;;;;;19.70;18.40;;;9.40;34.00;;;;;;5043857;28;20976;-80
2022/12/05 21:11:22;;;;;;;20.20;18.60;;;9.50;34.20;;;;;;5023891;28;20789;-80
2022/12/05 21:13:48;;;;;;;19.83;18.47;;;9.40;33.60;;;;;;5043148;28;20494;-79
2022/12/05 21:16:18;;;;;;;20.30;18.80;;;9.00;35.40;;;;;;5043188;28;20413;-80
2022/12/05 21:18:44;;;;;;;19.70;18.30;;;8.70;36.70;;;;;;5042806;28;20502;-79
2022/12/05 21:21:14;;;;;;;19.67;18.37;;;8.50;37.70;;;;;;5026588;28;20446;-79
2022/12/05 21:23:41;;;;;;;19.80;18.17;;;8.40;38.00;;;;;;5024147;28;20482;-79
2022/12/05 21:26:11;;;;;;;19.70;18.40;;;8.10;39.00;;;;;;5024907;28;20424;-80
2022/12/05 21:28:36;;;;;;;19.63;18.23;;;8.00;39.80;;;;;;5043203;28;20485;-81
2022/12/05 21:31:12;;;;;;;20.90;19.30;;;8.00;40.50;;;;;;5042975;28;20475;-80
2022/12/05 21:33:39;;;;;;;21.00;19.50;;;8.00;40.40;;;;;;5041720;28;20193;-81
2022/12/05 21:36:06;;;;;;;19.60;18.20;;;8.00;39.90;;;;;;5042049;28;20420;-79
2022/12/05 21:38:32;;;;;;;19.00;17.80;;;8.00;40.50;;;;;;5024125;28;20427;-81
2022/12/05 21:40:58;;;;;;;18.90;17.70;;;7.80;40.80;;;;;;5020902;28;20505;-81
2022/12/05 21:43:23;;;;;;;17.30;16.10;;;7.90;40.80;;;;;;5021035;28;20428;-79
2022/12/05 21:45:53;;;;;;;18.83;17.63;;;7.80;40.30;;;;;;5021523;28;20666;-82
2022/12/05 21:48:20;;;;;;;17.17;16.17;;;7.80;40.20;;;;;;5021071;28;20220;-81
2022/12/05 21:50:46;;;;;;;17.43;16.43;;;7.70;40.60;;;;;;5018534;28;20407;-81
2022/12/05 21:53:12;;;;;;;19.87;18.47;;;7.60;41.00;;;;;;5018582;28;20494;-79
2022/12/05 21:55:38;;;;;;;18.57;17.47;;;7.60;41.10;;;;;;5020489;28;20425;-79
2022/12/05 21:58:03;;;;;;;18.47;17.33;;;7.70;41.10;;;;;;5041278;28;20176;-79
2022/12/05 22:00:29;;;;;;;17.87;16.80;;;7.60;40.60;;;;;;5020479;28;20193;-79
2022/12/05 22:02:55;;;;;;;16.83;15.83;;;7.50;41.20;;;;;;5020213;28;20181;-79